Login

vicyo81
1 activity; - Last training unit 23/03/2016
23/03/2016 Show to everybody baldissero pistino 19.91 744 01:55:44 10.32 Km\h Gary Fisher Roscoe I
20/03/2016 Show to everybody 20-03-2016 Finale Ligure - San Bernardino - Bric dei morti - DH donne - Briga 35.78 988 03:57:16 9.05 Km\h
18/03/2016 Show to everybody 18-03-2016 Borgiallo - ca' de puler 11.18 611 01:18:42 8.52 Km\h
15/03/2016 Show to everybody 15-03-2016 Calea - Cavallaria.gpx 21.43 982 02:22:06 9.05 Km\h
15/03/2016 Show to everybody 15-03-2016 Banchette Samone 10.96 177 00:53:26 12.3 Km\h
13/03/2016 Show to everybody 13-03-2016 Avigliana Enduro delle streghe 33.08 1154 04:07:50 8.01 Km\h
10/03/2016 Show to everybody 10-03-2016 Samone lavoro 9.37 135 00:49:20 11.39 Km\h
09/03/2016 Show to everybody 09-03-2016 Muriaglio - pistino x2 14.51 690 01:38:48 8.81 Km\h
06/03/2016 Show to everybody 06-03-2016 Coggiola Bella zio - San Pancrazio - Gogher 30.52 1195 03:55:00 7.79 Km\h
02/03/2016 Show to everybody 02-03-2016 Calea - serpas - Brosso 20.34 713 01:46:37 11.45 Km\h
28/02/2016 Show to everybody 28-02-2016 Serra freeride 20.37 711 02:35:16 7.87 Km\h
24/02/2016 Show to everybody 24-02-2016 Corio - testa Brusa - colle Matteo 21.07 995 02:36:13 8.09 Km\h
21/02/2016 Show to everybody 21-02-2016 Occhieppo 39.92 1493 05:12:12 7.67 Km\h
14/02/2016 Show to everybody 14-02-2016 Cantalupa - Casa Canada 19.94 803 02:18:27 8.64 Km\h
07/02/2016 Show to everybody champorcher 20.27 799 03:58:17 5.1 Km\h
05/02/2016 Show to everybody monti pelati 20.16 429 01:54:05 10.6 Km\h
03/02/2016 Show to everybody calea 20.87 641 01:41:59 12.28 Km\h
27/01/2016 Show to everybody 27-01-2016 Brusnengo - rive rosse 36.78 1037 04:12:18 8.75 Km\h
24/01/2016 Show to everybody 24-04-2016 Valperga - Gallo - Belmonte 31.81 1066 03:32:28 8.98 Km\h
22/01/2016 Show to everybody 22-01-2016 Monastero di Lanzo - Mezzenile - Meulla - Salvin 26.08 1040 03:15:22 8.01 Km\h
17/01/2016 Show to everybody 17-01-2015 San Bartolomeo PS.Maiali-Antenne-San.Rocco 35.82 1027 04:06:21 8.72 Km\h
14/01/2016 Show to everybody Orio night 28.66 523 02:32:47 11.26 Km\h
10/01/2016 Show to everybody 10-01-2016 Monjovet - Col de Joux 23.87 1150 03:07:00 7.66 Km\h
06/01/2016 Show to everybody 06-01-2016 Pogno Canalon 15.18 498 01:28:02 10.34 Km\h
06/01/2016 Show to everybody 06-01-2016 Mottarone 20.87 728 02:22:18 8.8 Km\h
04/01/2016 Show to everybody 04-01-2016 Cima Mares 24.58 1142 04:11:29 5.86 Km\h
30/12/2015 Show to everybody 30-12-2015 Ville sur Sarre - Becca France 23.23 1222 03:15:09 7.14 Km\h
25/12/2015 Show to everybody 25-12-2015 Pistino due volte è meglio che una 13.93 707 01:39:08 8.43 Km\h
19/12/2015 Show to everybody 19-12-2015 Baldissero M.te calvo pistino 29.44 1096 03:09:12 9.34 Km\h
18/12/2015 Show to everybody 18-12-2015 Baldissero pistino 18.49 666 01:44:03 10.66 Km\h
08/05/2015 Show to everybody Saint Vincent - Testa di Comagna 31.01 1513 03:46:59 8.2 Km\h
05/05/2015 Show to everybody 05-05-2015 Aglie - Torre 19.21 314 01:20:53 14.25 Km\h
03/05/2015 Show to everybody 03-05-2015 Traversella SE 22.24 1211 03:17:03 6.77 Km\h
28/04/2015 Show to everybody 28/04/15 Turin, Italy, Piedmont, Italy 28.02 1045 02:49:34 9.92 Km\h
26/04/2015 Show to everybody 26-04-2015 Courgnè-Monsufietto-Rocce di S.Martino-Nero-Ronchi di Cuorgnè 18.67 1056 02:42:16 6.9 Km\h
22/04/2015 Show to everybody 22-04-2015 Courgnè - Frassinetto - pian del Lupo - quasi Quinzeina 32.24 1620 03:56:20 8.19 Km\h
19/04/2015 Show to everybody 19-04-2015 Prarotto - Alpe Formica - Antenne 29.07 1491 04:41:08 6.2 Km\h Gary Fisher Roscoe I
15/04/2015 Show to everybody 15-04-2015 Baldissero - Frassinetto - pina del Lupo - Pistino 45.63 1300 03:31:35 12.94 Km\h Gary Fisher Roscoe I
12/04/2015 Show to everybody forti di Genova 43.24 1305 05:45:48 7.5 Km\h Gary Fisher Roscoe I
08/04/2015 Show to everybody 08-04-2015 2k Carema - Trovinasse - AlpeMaletto 33.92 1939 04:45:05 7.14 Km\h
04/04/2015 Show to everybody sarre 28.8 1477 03:40:09 7.85 Km\h
04/04/2015 Show to everybody sarre 28.8 1477 03:40:09 7.85 Km\h
31/03/2015 Show to everybody 31/03/15 Calea, Piemonte, Italy 27.02 1105 03:15:46 8.28 Km\h
29/03/2015 Show to everybody 29-03-2015 Pegli - monte Pennello - E1 28.99 1089 03:33:53 8.13 Km\h
27/03/2015 Show to everybody calea cavallaria 21.63 988 02:01:29 10.68 Km\h
19/03/2015 Show to everybody 19-03-2015 Calea 21.6 982 02:25:27 8.91 Km\h
14/03/2015 Show to everybody 14-03-2015 Aglie - Castelnuovo - S.Elisabetta 45.73 1171 03:49:56 11.93 Km\h
11/03/2015 Show to everybody 11-03-2015 Calea - Cavallaria nigth 23.57 829 02:06:43 11.16 Km\h
08/03/2015 Show to everybody 08-03-2015 Pont - Monteu 30.4 1127 03:55:46 7.74 Km\h
22/02/2015 Show to everybody 22/02/15 Valperga, Piemonte, Italy 17.41 574 02:24:25 7.23 Km\h
18/02/2015 Show to everybody 18-02-2015 Baldissero night 15.56 447 01:41:54 9.16 Km\h
13/02/2015 Show to everybody 13-02-2015 Baldissero - pistino 21.83 701 02:29:55 8.74 Km\h
11/02/2015 Show to everybody 11/02/15 Turin, Italy, Piedmont, Italy 20.19 303 01:22:15 14.73 Km\h
01/02/2015 Show to everybody 01-02-2015 Champorcher - Dondenaz Fat neve 20.71 842 03:04:42 6.73 Km\h
25/01/2015 Show to everybody 25/01/15 San Bartolomeo Al Mare, Liguria, Italy 44.34 1321 04:54:23 9.04 Km\h
21/01/2015 Show to everybody 21-01-2015 Brosso night neve 15.38 284 01:42:08 9.03 Km\h
18/01/2015 Show to everybody 18-01-2015 Chiaves - rif.Salvin neve 26.48 1139 03:49:15 6.93 Km\h
11/01/2015 Show to everybody 11-01-2015 Baldissero - pian delle nere - aglietto - pistino - pelati 39.61 1491 04:46:27 8.3 Km\h
06/01/2015 Show to everybody 06-01-2014 Aglie - pistino 30.38 700 02:12:45 13.73 Km\h
04/01/2015 Show to everybody 04/01/15 Cuorgnè - cima Mares 32.41 1501 04:50:11 6.7 Km\h
28/12/2014 Show to everybody 28-12-2014 Finale H - pian Melino - Briga 47.75 1517 05:19:40 8.96 Km\h
26/12/2014 Show to everybody 26/12/14 Montalto Dora, Piemonte, Italy 22.69 681 02:39:56 8.51 Km\h
23/12/2014 Show to everybody 23-12-2014 Noli - Rocche Bianche Quiliano - toboga - S.Michele 36.26 951 03:15:09 11.15 Km\h
21/12/2014 Show to everybody 21-12-2014 Susa 559 28.9 1439 03:41:17 7.84 Km\h
16/12/2014 Show to everybody Avigliana enduro 33.06 1188 04:36:39 7.17 Km\h
14/12/2014 Show to everybody 14/12/14 Pogno, Piemonte, Italy 42.8 1423 04:53:42 8.74 Km\h
12/12/2014 Show to everybody 12-12-2014 aglie - torre 33.54 579 02:36:21 12.87 Km\h
07/12/2014 Show to everybody 07-12-2014 baldissero - S.Elisa 33.15 1083 02:49:05 11.77 Km\h
30/11/2014 Show to everybody 30-11-2014 St.Vincent - col de Joux - Bellecombe 52.9 2053 05:26:57 9.71 Km\h
01/06/2013 Show to everybody Allenamento n. 2 8.93 55 00:40:34 13.21 Km\h
28/05/2013 Show to everybody Allenamento n. 1 19.72 512 01:24:06 14.07 Km\h
01/07/2012 Show to everybody Colle sommellier 42.78 1128 04:37:51 9.24 Km\h
29/06/2012 Show to everybody Baldissero 23.22 898 02:18:36 10.05 Km\h
26/06/2012 Show to everybody Baldissero 24.04 838 01:55:48 12.45 Km\h
24/06/2012 Show to everybody Malamot 23.8 1265 04:37:41 5.14 Km\h
21/06/2012 Show to everybody Baldissero 17.16 629 01:30:52 11.33 Km\h
19/06/2012 Show to everybody Baldissero 23.15 568 01:16:15 18.22 Km\h
15/06/2012 Show to everybody Baldissero 24.91 955 02:15:01 11.07 Km\h
15/06/2012 Show to everybody Baldissero 24.91 955 02:15:01 11.07 Km\h
10/06/2012 Show to everybody SE PS 3-4 Pogno 26.25 936 02:53:43 9.06 Km\h
09/06/2012 Show to everybody prova PS1-2 SE Pogno 4.59 45 00:27:35 9.99 Km\h
09/06/2012 Show to everybody prova PS3 SE Pogno 14.51 447 01:09:38 12.51 Km\h
06/06/2012 Show to everybody Monte calvo 24.64 837 02:25:56 10.13 Km\h
04/06/2012 Show to everybody Baldissero 24.05 909 02:21:46 10.18 Km\h
30/11/1999 Show to everybody 01-06 aglie monte calvo 32.68 0 00:00:00 0 Km\h
30/11/1999 Show to everybody 02-06-2012 Pogno 39.51 0 00:00:00 0 Km\h
Training units 0
Kilometers 0 Km
Vertical gain 0 mt
Hours of riding 00:00:00
Average speed 0 Km/h
average HR 133
Points 84
Live Tracking »

Gary Fisher Roscoe I 15:54:15 137.86 Km

 
If you stop following this users you will not be able to compare your trainings with his

Now you follow this users and you can compare your trainings


MTB-Forum.it | 2012-2019 Training Camp v.1.6 rev 05